Time;durP1;ratioP1;P1;durP2;ratioP2;P2;SDS_P1;SDS_P2;PMS_P1;PMS_P2;Temp;Humidity;BMP_temperature;BMP_pressure;BME280_temperature;BME280_humidity;BME280_pressure;Samples;Min_cycle;Max_cycle;Signal;HPM_P1;HPM_P2
2023/04/17 00:00:24;;;;;;;;;;;8.10;99.90;;;;;;8308465;28;19905;-79
2023/04/17 00:04:25;;;;;;;;;;;8.00;99.90;;;;;;8306768;28;20370;-79
2023/04/17 00:08:25;;;;;;;;;;;8.00;99.90;;;;;;8311944;28;20002;-77
2023/04/17 00:12:26;;;;;;;;;;;8.10;99.90;;;;;;8307389;28;19920;-78
2023/04/17 00:16:26;;;;;;;;;;;8.10;99.90;;;;;;8302900;28;19909;-79
2023/04/17 00:20:27;;;;;;;;;;;8.00;99.90;;;;;;8307174;28;19936;-78
2023/04/17 00:24:27;;;;;;;;;;;8.10;99.90;;;;;;8315809;28;19920;-78
2023/04/17 00:28:28;;;;;;;;;;;8.00;99.90;;;;;;8323222;28;19913;-77
2023/04/17 00:32:29;;;;;;;;;;;7.90;99.90;;;;;;8319401;28;19920;-78
2023/04/17 00:36:30;;;;;;;;;;;8.00;99.90;;;;;;8312632;28;20377;-78
2023/04/17 00:40:31;;;;;;;;;;;7.90;99.90;;;;;;8318762;28;20408;-78
2023/04/17 00:44:31;;;;;;;;;;;7.80;99.90;;;;;;8310665;28;19906;-78
2023/04/17 00:48:32;;;;;;;;;;;7.70;99.90;;;;;;8319920;28;19909;-78
2023/04/17 00:52:33;;;;;;;;;;;7.60;99.90;;;;;;8318804;28;19912;-79
2023/04/17 00:56:33;;;;;;;;;;;7.50;99.90;;;;;;8310743;28;20392;-79
2023/04/17 01:00:34;;;;;;;;;;;7.60;99.90;;;;;;8312583;28;20373;-79
2023/04/17 01:04:34;;;;;;;;;;;7.60;99.90;;;;;;8314457;28;19912;-79
2023/04/17 01:08:40;;;;;;;;;;;7.70;99.90;;;;;;8311275;28;19909;-79
2023/04/17 01:12:45;;;;;;;;;;;7.60;99.90;;;;;;8312805;28;20254;-79
2023/04/17 01:16:45;;;;;;;;;;;7.50;99.90;;;;;;8314996;28;19912;-78
2023/04/17 01:20:46;;;;;;;;;;;7.50;99.90;;;;;;8321824;28;20362;-79
2023/04/17 01:24:46;;;;;;;;;;;7.50;99.90;;;;;;8342778;28;19909;-79
2023/04/17 01:28:51;;;;;;;;;;;7.50;99.90;;;;;;8316787;28;19917;-79
2023/04/17 01:32:55;;;;;;;;;;;7.40;99.90;;;;;;8311751;28;19999;-79
2023/04/17 01:36:55;;;;;;;;;;;7.40;99.90;;;;;;8302165;28;19917;-80
2023/04/17 01:40:56;;;;;;;;;;;7.40;99.90;;;;;;8320358;28;20461;-78
2023/04/17 01:44:56;;;;;;;;;;;7.60;99.90;;;;;;8306587;28;19917;-77
2023/04/17 01:48:56;;;;;;;;;;;7.40;99.90;;;;;;8319581;28;19913;-77
2023/04/17 01:52:57;;;;;;;;;;;7.50;99.90;;;;;;8302968;28;19971;-78
2023/04/17 01:56:57;;;;;;;;;;;7.70;99.90;;;;;;8311004;28;19913;-78
2023/04/17 02:00:58;;;;;;;;;;;7.80;99.90;;;;;;8314250;28;20541;-78
2023/04/17 02:04:58;;;;;;;;;;;7.80;99.90;;;;;;8316123;28;19909;-79
2023/04/17 02:08:59;;;;;;;;;;;7.60;99.90;;;;;;8327213;28;19905;-80
2023/04/17 02:12:59;;;;;;;;;;;7.40;99.90;;;;;;8320807;28;19932;-79
2023/04/17 02:17:00;;;;;;;;;;;7.40;99.90;;;;;;8304931;28;19996;-79
2023/04/17 02:21:00;;;;;;;;;;;7.20;99.90;;;;;;8313901;28;19944;-79
2023/04/17 02:25:01;;;;;;;;;;;7.20;99.90;;;;;;8295592;28;19916;-79
2023/04/17 02:29:01;;;;;;;;;;;7.00;99.90;;;;;;8307670;28;19924;-78
2023/04/17 02:33:02;;;;;;;;;;;6.90;99.90;;;;;;8301758;28;19913;-79
2023/04/17 02:37:02;;;;;;;;;;;6.80;99.90;;;;;;8309217;28;19914;-80
2023/04/17 02:41:04;;;;;;;;;;;6.70;99.90;;;;;;8305879;28;19935;-79
2023/04/17 02:45:05;;;;;;;;;;;6.70;99.90;;;;;;8313240;28;19951;-80
2023/04/17 02:49:05;;;;;;;;;;;6.80;99.90;;;;;;8321176;28;19927;-79
2023/04/17 02:53:06;;;;;;;;;;;6.90;99.90;;;;;;8307131;28;19916;-79
2023/04/17 02:57:06;;;;;;;;;;;6.90;99.90;;;;;;8301639;28;19924;-79
2023/04/17 03:01:07;;;;;;;;;;;7.20;99.90;;;;;;8316963;28;20464;-79
2023/04/17 03:05:08;;;;;;;;;;;7.60;99.90;;;;;;8302168;28;19909;-79
2023/04/17 03:09:11;;;;;;;;;;;7.50;99.90;;;;;;8304212;28;19955;-78
2023/04/17 03:13:11;;;;;;;;;;;7.50;99.90;;;;;;8310628;28;19910;-79
2023/04/17 03:17:12;;;;;;;;;;;7.50;99.90;;;;;;8313564;28;20304;-78
2023/04/17 03:21:13;;;;;;;;;;;7.50;99.90;;;;;;8305090;28;19909;-79
2023/04/17 03:25:13;;;;;;;;;;;7.30;99.90;;;;;;8329985;28;20004;-79
2023/04/17 03:29:14;;;;;;;;;;;7.20;99.90;;;;;;8305718;28;19909;-80
2023/04/17 03:33:17;;;;;;;;;;;6.90;99.90;;;;;;8308055;28;19925;-79
2023/04/17 03:37:18;;;;;;;;;;;6.90;99.90;;;;;;8310975;28;19924;-78
2023/04/17 03:41:18;;;;;;;;;;;6.80;99.90;;;;;;8302947;28;20539;-78
2023/04/17 03:45:19;;;;;;;;;;;7.20;99.90;;;;;;8304978;28;20110;-78
2023/04/17 03:49:19;;;;;;;;;;;7.40;99.90;;;;;;8305693;28;19944;-79
2023/04/17 03:53:20;;;;;;;;;;;7.30;99.90;;;;;;8299132;28;20404;-77
2023/04/17 03:57:20;;;;;;;;;;;7.10;99.90;;;;;;8312620;28;19917;-79
2023/04/17 04:01:21;;;;;;;;;;;6.80;99.90;;;;;;8313206;28;19932;-77
2023/04/17 04:05:21;;;;;;;;;;;7.10;99.90;;;;;;8307737;28;20329;-77
2023/04/17 04:09:22;;;;;;;;;;;6.90;99.90;;;;;;8313062;28;20270;-78
2023/04/17 04:13:22;;;;;;;;;;;6.90;99.90;;;;;;8323855;28;19920;-78
2023/04/17 04:17:23;;;;;;;;;;;6.80;99.90;;;;;;8311400;28;19924;-78
2023/04/17 04:21:23;;;;;;;;;;;6.70;99.90;;;;;;8340183;28;20023;-78
2023/04/17 04:25:24;;;;;;;;;;;6.60;99.90;;;;;;8310944;28;20534;-77
2023/04/17 04:29:25;;;;;;;;;;;6.50;99.90;;;;;;8319607;28;20289;-77
2023/04/17 04:33:26;;;;;;;;;;;6.30;99.90;;;;;;8304827;28;19919;-77
2023/04/17 04:37:28;;;;;;;;;;;6.30;99.90;;;;;;8312363;28;20278;-79
2023/04/17 04:41:32;;;;;;;;;;;6.30;99.90;;;;;;8304854;28;19909;-80
2023/04/17 04:45:33;;;;;;;;;;;6.40;99.90;;;;;;8308314;28;19916;-79
2023/04/17 04:49:33;;;;;;;;;;;6.50;99.90;;;;;;8324165;28;19905;-78
2023/04/17 04:53:34;;;;;;;;;;;6.80;99.90;;;;;;8308939;28;19905;-79
2023/04/17 04:57:35;;;;;;;;;;;7.10;99.90;;;;;;8300204;28;19984;-79
2023/04/17 05:01:35;;;;;;;;;;;7.50;99.90;;;;;;8315829;28;19917;-79
2023/04/17 05:05:37;;;;;;;;;;;7.60;99.90;;;;;;8309658;28;20321;-79
2023/04/17 05:09:37;;;;;;;;;;;7.30;99.90;;;;;;8313910;28;19956;-79
2023/04/17 05:13:37;;;;;;;;;;;7.30;99.90;;;;;;8313471;28;19913;-80
2023/04/17 05:17:38;;;;;;;;;;;7.30;99.90;;;;;;8308024;28;20346;-79
2023/04/17 05:21:38;;;;;;;;;;;7.40;99.90;;;;;;8313400;28;19991;-79
2023/04/17 05:25:39;;;;;;;;;;;7.30;99.90;;;;;;8296625;28;20003;-79
2023/04/17 05:29:39;;;;;;;;;;;7.20;99.90;;;;;;8298540;28;19979;-78
2023/04/17 05:33:40;;;;;;;;;;;7.50;99.90;;;;;;8314427;28;19916;-79
2023/04/17 05:37:40;;;;;;;;;;;7.60;99.90;;;;;;8312515;28;19909;-78
2023/04/17 05:41:41;;;;;;;;;;;7.70;99.90;;;;;;8312409;28;19910;-79
2023/04/17 05:45:41;;;;;;;;;;;7.50;99.90;;;;;;8320172;28;19905;-79
2023/04/17 05:49:43;;;;;;;;;;;7.40;99.90;;;;;;8313952;28;20387;-80
2023/04/17 05:53:43;;;;;;;;;;;7.60;99.90;;;;;;8303662;28;19991;-79
2023/04/17 05:57:44;;;;;;;;;;;7.70;99.90;;;;;;8309299;28;19939;-80
2023/04/17 06:01:44;;;;;;;;;;;7.90;99.90;;;;;;8309519;28;19980;-80
2023/04/17 06:05:45;;;;;;;;;;;8.00;99.90;;;;;;8302366;28;19913;-79
2023/04/17 06:09:46;;;;;;;;;;;8.10;99.90;;;;;;8305093;28;19909;-79
2023/04/17 06:13:46;;;;;;;;;;;8.20;99.90;;;;;;8307423;28;20153;-80
2023/04/17 06:17:47;;;;;;;;;;;8.20;99.90;;;;;;8298128;28;20534;-79
2023/04/17 06:21:47;;;;;;;;;;;8.10;99.90;;;;;;8334031;28;20344;-79
2023/04/17 06:25:48;;;;;;;;;;;8.30;99.90;;;;;;8310907;28;19920;-79
2023/04/17 06:29:48;;;;;;;;;;;8.10;99.90;;;;;;8308410;28;19909;-78
2023/04/17 06:33:49;;;;;;;;;;;8.20;99.90;;;;;;8302488;28;19959;-79
2023/04/17 06:37:50;;;;;;;;;;;8.50;99.90;;;;;;8314332;28;20410;-79
2023/04/17 06:41:50;;;;;;;;;;;8.50;99.90;;;;;;8305443;28;19916;-79
2023/04/17 06:45:51;;;;;;;;;;;8.50;99.90;;;;;;8301621;28;19909;-80
2023/04/17 06:49:52;;;;;;;;;;;8.20;99.90;;;;;;8314258;28;20461;-79
2023/04/17 06:53:52;;;;;;;;;;;8.20;99.90;;;;;;8300888;28;19939;-79
2023/04/17 06:57:53;;;;;;;;;;;8.70;99.90;;;;;;8313136;28;20008;-80
2023/04/17 07:01:54;;;;;;;;;;;8.80;99.90;;;;;;8309549;28;19924;-78
2023/04/17 07:05:54;;;;;;;;;;;8.80;99.90;;;;;;8308670;28;19913;-79
2023/04/17 07:09:55;;;;;;;;;;;8.80;99.90;;;;;;8303236;28;20336;-79
2023/04/17 07:13:55;;;;;;;;;;;9.10;99.90;;;;;;8317991;28;19984;-79
2023/04/17 07:17:56;;;;;;;;;;;9.30;99.90;;;;;;8316324;28;19920;-78
2023/04/17 07:21:56;;;;;;;;;;;9.40;99.90;;;;;;8308218;28;19920;-81
2023/04/17 07:25:57;;;;;;;;;;;9.70;99.90;;;;;;8307997;28;20361;-80
2023/04/17 07:29:57;;;;;;;;;;;9.80;99.90;;;;;;8313901;28;19945;-81
2023/04/17 07:33:58;;;;;;;;;;;9.70;99.90;;;;;;8308719;28;19970;-80
2023/04/17 07:38:00;;;;;;;;;;;9.90;99.90;;;;;;8306592;28;19917;-81
2023/04/17 07:42:05;;;;;;;;;;;9.90;99.90;;;;;;8314370;28;19968;-81
2023/04/17 07:46:05;;;;;;;;;;;10.20;99.90;;;;;;8308037;28;19968;-80
2023/04/17 07:50:06;;;;;;;;;;;10.50;99.90;;;;;;8306157;28;19909;-81
2023/04/17 07:54:07;;;;;;;;;;;10.70;99.90;;;;;;8301117;28;19918;-80
2023/04/17 07:58:10;;;;;;;;;;;10.90;99.90;;;;;;8317182;28;20213;-80
2023/04/17 08:02:10;;;;;;;;;;;10.90;99.90;;;;;;8316830;28;19910;-80
2023/04/17 08:06:11;;;;;;;;;;;11.40;99.90;;;;;;8309245;28;20397;-81
2023/04/17 08:10:11;;;;;;;;;;;12.30;99.90;;;;;;8307497;28;19916;-80
2023/04/17 08:14:12;;;;;;;;;;;12.50;99.90;;;;;;8313177;28;20369;-80
2023/04/17 08:18:12;;;;;;;;;;;12.60;99.90;;;;;;8318476;28;20365;-80
2023/04/17 08:22:13;;;;;;;;;;;12.80;99.90;;;;;;8304991;28;19913;-81
2023/04/17 08:26:13;;;;;;;;;;;12.90;99.90;;;;;;8303489;28;19917;-81
2023/04/17 08:30:14;;;;;;;;;;;12.60;99.90;;;;;;8300093;28;20301;-80
2023/04/17 08:34:15;;;;;;;;;;;12.20;99.90;;;;;;8298683;28;19909;-81
2023/04/17 08:38:15;;;;;;;;;;;11.90;99.90;;;;;;8301551;28;19920;-81
2023/04/17 08:42:16;;;;;;;;;;;11.80;99.90;;;;;;8307210;28;20011;-81
2023/04/17 08:46:19;;;;;;;;;;;12.40;99.90;;;;;;8314022;28;19916;-81
2023/04/17 08:50:20;;;;;;;;;;;13.40;99.90;;;;;;8303822;28;19915;-81
2023/04/17 08:54:21;;;;;;;;;;;14.20;99.90;;;;;;8311104;28;20367;-81
2023/04/17 08:58:24;;;;;;;;;;;14.40;99.90;;;;;;8319861;28;19920;-81
2023/04/17 09:02:25;;;;;;;;;;;13.40;99.90;;;;;;8313629;28;20375;-81
2023/04/17 09:06:26;;;;;;;;;;;12.80;99.90;;;;;;8336364;28;19913;-81
2023/04/17 09:10:33;;;;;;;;;;;12.50;99.90;;;;;;8305414;28;19935;-81
2023/04/17 09:14:34;;;;;;;;;;;12.50;99.90;;;;;;8312446;28;19913;-81
2023/04/17 09:18:35;;;;;;;;;;;13.00;99.90;;;;;;8317771;28;19928;-81
2023/04/17 09:22:36;;;;;;;;;;;13.10;99.90;;;;;;8308997;28;20494;-81
2023/04/17 09:26:36;;;;;;;;;;;13.20;99.90;;;;;;8299411;28;19917;-81
2023/04/17 09:30:38;;;;;;;;;;;13.20;99.90;;;;;;8309335;28;19932;-81
2023/04/17 09:34:42;;;;;;;;;;;12.10;99.90;;;;;;8309169;28;20333;-81
2023/04/17 09:38:43;;;;;;;;;;;12.70;99.90;;;;;;8318870;28;19917;-81
2023/04/17 09:42:54;;;;;;;;;;;12.50;99.90;;;;;;8304123;28;19916;-80
2023/04/17 09:46:55;;;;;;;;;;;12.30;99.90;;;;;;8315268;28;19925;-80
2023/04/17 09:50:55;;;;;;;;;;;12.90;99.90;;;;;;8301760;28;20540;-81
2023/04/17 09:54:56;;;;;;;;;;;12.60;99.90;;;;;;8302965;28;19913;-80
2023/04/17 09:58:57;;;;;;;;;;;12.30;99.90;;;;;;8300329;28;19929;-79
2023/04/17 10:02:58;;;;;;;;;;;12.00;99.90;;;;;;8310588;28;19909;-79
2023/04/17 10:06:59;;;;;;;;;;;12.00;99.90;;;;;;8308824;28;19909;-80
2023/04/17 10:11:04;;;;;;;;;;;11.80;99.90;;;;;;8309675;28;19905;-79
2023/04/17 10:15:06;;;;;;;;;;;11.60;99.90;;;;;;8307058;28;19905;-79
2023/04/17 10:19:22;;;;;;;;;;;11.80;99.90;;;;;;8312842;28;19994;-79
2023/04/17 10:23:26;;;;;;;;;;;12.40;99.90;;;;;;8312733;28;19909;-79
2023/04/17 10:27:27;;;;;;;;;;;13.60;99.90;;;;;;8303547;28;19913;-79
2023/04/17 10:31:46;;;;;;;;;;;13.70;99.90;;;;;;8306807;28;19916;-79
2023/04/17 10:35:47;;;;;;;;;;;13.30;99.90;;;;;;8311054;28;20313;-78
2023/04/17 10:39:50;;;;;;;;;;;14.50;99.90;;;;;;8304638;28;19920;-78
2023/04/17 10:43:50;;;;;;;;;;;15.00;99.90;;;;;;8300703;28;20221;-79
2023/04/17 10:47:56;;;;;;;;;;;13.20;99.90;;;;;;8312156;28;19916;-79
2023/04/17 10:51:57;;;;;;;;;;;12.00;99.90;;;;;;8310588;28;19917;-79
2023/04/17 10:55:57;;;;;;;;;;;11.50;99.90;;;;;;8303091;28;20020;-79
2023/04/17 11:00:11;;;;;;;;;;;11.30;99.90;;;;;;8298820;28;19916;-79
2023/04/17 11:04:17;;;;;;;;;;;11.70;99.90;;;;;;8301180;28;19914;-79
2023/04/17 11:08:18;;;;;;;;;;;12.20;99.90;;;;;;8300209;28;20378;-79
2023/04/17 11:12:18;;;;;;;;;;;12.80;99.90;;;;;;8299037;28;19996;-77
2023/04/17 11:16:20;;;;;;;;;;;11.80;99.90;;;;;;8302584;28;19920;-80
2023/04/17 11:20:22;;;;;;;;;;;11.40;99.90;;;;;;8297941;28;19909;-80
2023/04/17 11:24:22;;;;;;;;;;;11.40;99.90;;;;;;8301249;28;20397;-80
2023/04/17 11:28:22;;;;;;;;;;;11.90;99.90;;;;;;8304533;28;19967;-80
2023/04/17 11:32:23;;;;;;;;;;;12.60;99.90;;;;;;8298391;28;19932;-80
2023/04/17 11:36:23;;;;;;;;;;;13.10;99.90;;;;;;8299857;28;20573;-79
2023/04/17 11:40:24;;;;;;;;;;;13.00;99.90;;;;;;8300159;28;20366;-80
2023/04/17 11:44:25;;;;;;;;;;;13.10;99.90;;;;;;8300215;28;19962;-80
2023/04/17 11:48:27;;;;;;;;;;;13.50;99.90;;;;;;8301304;28;19909;-80
2023/04/17 11:52:27;;;;;;;;;;;15.50;99.90;;;;;;8306721;28;19909;-78
2023/04/17 11:56:28;;;;;;;;;;;13.30;99.90;;;;;;8312139;28;19917;-79
2023/04/17 12:00:30;;;;;;;;;;;11.10;99.90;;;;;;8308135;28;20516;-79
2023/04/17 12:04:33;;;;;;;;;;;10.40;99.90;;;;;;8304637;28;20422;-79
2023/04/17 12:08:41;;;;;;;;;;;10.20;99.90;;;;;;8297800;28;19905;-79
2023/04/17 12:12:44;;;;;;;;;;;10.30;99.90;;;;;;8301953;28;19913;-79
2023/04/17 12:16:48;;;;;;;;;;;10.70;99.90;;;;;;8321096;28;20408;-78
2023/04/17 12:20:49;;;;;;;;;;;11.10;99.90;;;;;;8306084;28;20588;-79
2023/04/17 12:24:50;;;;;;;;;;;11.70;99.90;;;;;;8297124;28;19912;-79
2023/04/17 12:28:50;;;;;;;;;;;12.80;99.90;;;;;;8307834;28;20393;-79
2023/04/17 12:32:51;;;;;;;;;;;13.40;99.90;;;;;;8311025;28;19913;-79
2023/04/17 12:36:52;;;;;;;;;;;12.80;99.90;;;;;;8312258;28;19921;-79
2023/04/17 12:40:52;;;;;;;;;;;12.80;99.90;;;;;;8300691;28;20302;-79
2023/04/17 12:44:53;;;;;;;;;;;13.00;99.90;;;;;;8318026;28;19951;-80
2023/04/17 12:48:57;;;;;;;;;;;13.00;99.90;;;;;;8320074;28;19992;-79
2023/04/17 12:52:58;;;;;;;;;;;13.20;99.90;;;;;;8309276;28;20358;-78
2023/04/17 12:56:58;;;;;;;;;;;13.40;99.90;;;;;;8308389;28;19913;-79
2023/04/17 13:00:59;;;;;;;;;;;13.70;99.90;;;;;;8299182;28;20012;-79
2023/04/17 13:04:59;;;;;;;;;;;13.40;99.90;;;;;;8304697;28;19956;-78
2023/04/17 13:09:00;;;;;;;;;;;12.00;99.90;;;;;;8309763;28;19948;-79
2023/04/17 13:13:01;;;;;;;;;;;10.90;99.90;;;;;;8308869;28;19912;-78
2023/04/17 13:17:01;;;;;;;;;;;10.40;99.90;;;;;;8311236;28;19909;-78
2023/04/17 13:21:02;;;;;;;;;;;10.30;99.90;;;;;;8307038;28;19942;-77
2023/04/17 13:25:03;;;;;;;;;;;10.00;99.90;;;;;;8325642;28;19909;-77
2023/04/17 13:29:03;;;;;;;;;;;9.30;99.90;;;;;;8310109;28;19916;-76
2023/04/17 13:33:04;;;;;;;;;;;9.20;99.90;;;;;;8318064;28;19909;-78
2023/04/17 13:37:06;;;;;;;;;;;9.40;99.90;;;;;;8312603;28;20000;-78
2023/04/17 13:41:06;;;;;;;;;;;9.60;99.90;;;;;;8315918;28;19956;-79
2023/04/17 13:45:07;;;;;;;;;;;9.90;99.90;;;;;;8312826;28;19909;-79
2023/04/17 13:49:07;;;;;;;;;;;9.90;99.90;;;;;;8319559;28;19909;-78
2023/04/17 13:53:08;;;;;;;;;;;10.00;99.90;;;;;;8301066;28;19923;-78
2023/04/17 13:57:09;;;;;;;;;;;10.20;99.90;;;;;;8307753;28;20262;-79
2023/04/17 14:01:11;;;;;;;;;;;10.50;99.90;;;;;;8316041;28;19908;-77
2023/04/17 14:05:11;;;;;;;;;;;12.50;99.90;;;;;;8314395;28;20340;-77
2023/04/17 14:09:12;;;;;;;;;;;15.00;99.90;;;;;;8306791;28;19925;-78
2023/04/17 14:13:12;;;;;;;;;;;16.80;99.90;;;;;;8315421;28;20011;-78
2023/04/17 14:17:12;;;;;;;;;;;17.20;99.90;;;;;;8311254;28;19913;-79
2023/04/17 14:21:14;;;;;;;;;;;16.80;99.90;;;;;;8312657;28;19916;-79
2023/04/17 14:25:14;;;;;;;;;;;14.80;99.90;;;;;;8332164;28;20454;-79
2023/04/17 14:29:14;;;;;;;;;;;13.10;99.90;;;;;;8320029;28;19917;-80
2023/04/17 14:33:15;;;;;;;;;;;12.80;99.90;;;;;;8305377;28;19992;-79
2023/04/17 14:37:15;;;;;;;;;;;12.80;99.90;;;;;;8305144;28;20777;-79
2023/04/17 14:41:16;;;;;;;;;;;12.90;99.90;;;;;;8304441;28;19913;-79
2023/04/17 14:45:16;;;;;;;;;;;12.90;99.90;;;;;;8315294;28;20975;-78
2023/04/17 14:49:19;;;;;;;;;;;12.80;99.90;;;;;;8312746;28;19959;-79
2023/04/17 14:53:19;;;;;;;;;;;12.80;99.90;;;;;;8315277;28;20109;-80
2023/04/17 14:57:20;;;;;;;;;;;13.70;99.90;;;;;;8318134;28;19924;-78
2023/04/17 15:01:20;;;;;;;;;;;15.30;99.90;;;;;;8304644;28;19945;-79
2023/04/17 15:05:21;;;;;;;;;;;15.40;99.90;;;;;;8306184;28;19909;-78
2023/04/17 15:09:21;;;;;;;;;;;15.40;99.90;;;;;;8309895;28;19909;-79
2023/04/17 15:13:22;;;;;;;;;;;16.30;99.90;;;;;;8309199;28;19909;-78
2023/04/17 15:17:22;;;;;;;;;;;14.80;99.90;;;;;;8317561;28;20002;-78
2023/04/17 15:21:23;;;;;;;;;;;12.70;99.90;;;;;;8305728;28;19917;-79
2023/04/17 15:25:24;;;;;;;;;;;11.00;99.90;;;;;;8315262;28;19976;-79
2023/04/17 15:29:24;;;;;;;;;;;10.20;99.90;;;;;;8315426;28;20332;-79
2023/04/17 15:33:25;;;;;;;;;;;10.00;99.90;;;;;;8312198;28;19909;-79
2023/04/17 15:37:26;;;;;;;;;;;10.10;99.90;;;;;;8319068;28;19913;-78
2023/04/17 15:41:27;;;;;;;;;;;9.80;99.90;;;;;;8317298;28;20198;-78
2023/04/17 15:45:27;;;;;;;;;;;9.70;99.90;;;;;;8310804;28;20372;-78
2023/04/17 15:49:29;;;;;;;;;;;9.70;99.90;;;;;;8318244;28;19905;-78
2023/04/17 15:53:30;;;;;;;;;;;9.70;99.90;;;;;;8310626;28;20105;-78
2023/04/17 15:57:30;;;;;;;;;;;9.80;99.90;;;;;;8320946;22;19920;-83
2023/04/17 16:01:31;;;;;;;;;;;9.90;99.90;;;;;;8230193;28;20406;-84
2023/04/17 16:05:31;;;;;;;;;;;10.00;99.90;;;;;;8232203;28;19920;-82
2023/04/17 16:09:32;;;;;;;;;;;10.30;99.90;;;;;;8233289;28;19910;-83
2023/04/17 16:13:32;;;;;;;;;;;9.60;99.90;;;;;;8232138;28;19954;-83
2023/04/17 16:17:33;;;;;;;;;;;9.80;99.90;;;;;;8232909;28;20021;-82
2023/04/17 16:21:33;;;;;;;;;;;9.80;99.90;;;;;;8225614;28;19910;-82
2023/04/17 16:25:34;;;;;;;;;;;9.90;99.90;;;;;;8226670;28;20322;-83
2023/04/17 16:29:37;;;;;;;;;;;9.80;99.90;;;;;;8226233;28;19910;-83
2023/04/17 16:33:38;;;;;;;;;;;9.70;99.90;;;;;;8233662;28;19964;-83
2023/04/17 16:37:38;;;;;;;;;;;9.80;99.90;;;;;;8217646;28;19914;-83
2023/04/17 16:41:39;;;;;;;;;;;9.80;99.90;;;;;;8230225;28;19932;-83
2023/04/17 16:45:40;;;;;;;;;;;9.70;99.90;;;;;;8224239;28;19914;-82
2023/04/17 16:49:41;;;;;;;;;;;8.70;99.90;;;;;;8231229;28;19906;-83
2023/04/17 16:53:43;;;;;;;;;;;9.70;99.90;;;;;;8215791;28;19914;-83
2023/04/17 16:57:44;;;;;;;;;;;9.70;99.90;;;;;;8227531;28;19913;-83
2023/04/17 17:01:46;;;;;;;;;;;9.50;99.90;;;;;;8217437;28;20374;-83
2023/04/17 17:05:46;;;;;;;;;;;10.50;99.90;;;;;;8217419;28;19910;-84
2023/04/17 17:09:47;;;;;;;;;;;9.60;99.90;;;;;;8211479;28;19910;-83
2023/04/17 17:13:47;;;;;;;;;;;10.20;99.90;;;;;;8212686;28;19996;-83
2023/04/17 17:17:48;;;;;;;;;;;10.90;99.90;;;;;;8211457;28;20008;-83
2023/04/17 17:21:48;;;;;;;;;;;9.60;99.90;;;;;;8227057;28;20916;-83
2023/04/17 17:25:49;;;;;;;;;;;9.50;99.90;;;;;;8214435;28;19933;-83
2023/04/17 17:29:52;;;;;;;;;;;9.60;99.90;;;;;;8216769;28;19910;-83
2023/04/17 17:33:54;;;;;;;;;;;9.30;99.90;;;;;;8217526;28;20006;-82
2023/04/17 17:37:55;;;;;;;;;;;9.10;99.90;;;;;;8213440;28;20394;-83
2023/04/17 17:41:56;;;;;;;;;;;8.90;99.90;;;;;;8214596;28;20001;-83
2023/04/17 17:45:57;;;;;;;;;;;8.80;99.90;;;;;;8222897;28;20182;-81
2023/04/17 17:49:57;;;;;;;;;;;8.70;99.90;;;;;;8229260;28;19949;-82
2023/04/17 17:53:57;;;;;;;;;;;8.60;99.90;;;;;;8241713;28;19914;-83
2023/04/17 17:57:58;;;;;;;;;;;8.50;99.90;;;;;;8220802;28;19917;-83
2023/04/17 18:02:00;;;;;;;;;;;8.40;99.90;;;;;;8233881;28;20291;-83
2023/04/17 18:06:00;;;;;;;;;;;8.30;99.90;;;;;;8241183;28;19910;-83
2023/04/17 18:10:01;;;;;;;;;;;8.00;99.90;;;;;;8219131;28;20015;-83
2023/04/17 18:14:01;;;;;;;;;;;8.30;99.90;;;;;;8217355;28;19906;-82
2023/04/17 18:18:01;;;;;;;;;;;7.40;99.90;;;;;;8220496;28;19914;-83
2023/04/17 18:22:02;;;;;;;;;;;7.20;99.90;;;;;;8220405;28;19910;-83
2023/04/17 18:26:02;;;;;;;;;;;7.10;99.90;;;;;;8222078;28;19910;-83
2023/04/17 18:30:07;;;;;;;;;;;6.90;99.90;;;;;;8214327;28;20401;-82
2023/04/17 18:34:07;;;;;;;;;;;6.90;99.90;;;;;;8222742;28;19998;-83
2023/04/17 18:38:08;;;;;;;;;;;6.80;99.90;;;;;;8206957;28;19914;-83
2023/04/17 18:42:08;;;;;;;;;;;6.60;99.90;;;;;;8218545;28;19922;-82
2023/04/17 18:46:09;;;;;;;;;;;6.60;99.90;;;;;;8239224;28;19909;-83
2023/04/17 18:50:10;;;;;;;;;;;6.60;99.90;;;;;;8207730;28;19910;-83
2023/04/17 18:54:10;;;;;;;;;;;6.60;99.90;;;;;;8222435;28;19961;-83
2023/04/17 18:58:11;;;;;;;;;;;6.50;99.90;;;;;;8221373;28;19922;-84
2023/04/17 19:02:11;;;;;;;;;;;6.30;99.90;;;;;;8212779;28;19910;-83
2023/04/17 19:06:12;;;;;;;;;;;6.00;99.90;;;;;;8204080;28;19910;-83
2023/04/17 19:10:12;;;;;;;;;;;5.80;99.90;;;;;;8209019;28;19920;-83
2023/04/17 19:14:12;;;;;;;;;;;6.40;99.90;;;;;;8210131;28;20087;-83
2023/04/17 19:18:13;;;;;;;;;;;6.60;99.90;;;;;;8220978;28;19914;-83
2023/04/17 19:22:13;;;;;;;;;;;6.60;99.90;;;;;;8221074;28;20045;-83
2023/04/17 19:26:15;;;;;;;;;;;6.50;99.90;;;;;;8240214;28;20029;-81
2023/04/17 19:30:16;;;;;;;;;;;6.60;99.90;;;;;;8225066;28;19917;-80
2023/04/17 19:34:16;;;;;;;;;;;6.70;99.90;;;;;;8217372;28;19906;-80
2023/04/17 19:38:17;;;;;;;;;;;6.80;99.90;;;;;;8224148;28;19921;-81
2023/04/17 19:42:17;;;;;;;;;;;6.70;99.90;;;;;;8219709;28;20441;-81
2023/04/17 19:46:18;;;;;;;;;;;6.80;99.90;;;;;;8218570;28;20413;-80
2023/04/17 19:50:19;;;;;;;;;;;7.00;99.90;;;;;;8230428;28;19942;-80
2023/04/17 19:54:22;;;;;;;;;;;7.20;99.90;;;;;;8220735;28;19910;-80
2023/04/17 19:58:22;;;;;;;;;;;7.20;99.90;;;;;;8214674;28;20402;-80
2023/04/17 20:02:22;;;;;;;;;;;7.10;99.90;;;;;;8219195;28;20013;-80
2023/04/17 20:06:23;;;;;;;;;;;7.10;99.90;;;;;;8217388;28;19911;-81
2023/04/17 20:10:24;;;;;;;;;;;7.10;99.90;;;;;;8214117;28;19933;-80
2023/04/17 20:14:24;;;;;;;;;;;7.10;99.90;;;;;;8218954;28;19914;-81
2023/04/17 20:18:25;;;;;;;;;;;7.10;99.90;;;;;;8203889;28;19910;-80
2023/04/17 20:22:25;;;;;;;;;;;7.10;99.90;;;;;;8212186;28;19917;-81
2023/04/17 20:26:26;;;;;;;;;;;7.00;99.90;;;;;;8229762;28;19957;-81
2023/04/17 20:30:27;;;;;;;;;;;7.00;99.90;;;;;;8212368;28;19918;-80
2023/04/17 20:34:33;;;;;;;;;;;6.90;99.90;;;;;;8215083;28;20326;-80
2023/04/17 20:38:34;;;;;;;;;;;6.90;99.90;;;;;;8229796;28;19926;-80
2023/04/17 20:42:34;;;;;;;;;;;7.00;99.90;;;;;;8216770;28;19997;-81
2023/04/17 20:46:35;;;;;;;;;;;7.10;99.90;;;;;;8220101;28;19917;-81
2023/04/17 20:50:35;;;;;;;;;;;7.20;99.90;;;;;;8217471;28;19916;-81
2023/04/17 20:54:36;;;;;;;;;;;7.30;99.90;;;;;;8215103;28;19913;-81
2023/04/17 20:58:36;;;;;;;;;;;7.30;99.90;;;;;;8223453;28;20327;-80
2023/04/17 21:02:36;;;;;;;;;;;7.20;99.90;;;;;;8220780;28;20424;-80
2023/04/17 21:06:37;;;;;;;;;;;7.30;99.90;;;;;;8218236;28;20016;-81
2023/04/17 21:10:37;;;;;;;;;;;7.30;99.90;;;;;;8214509;28;19968;-81
2023/04/17 21:14:38;;;;;;;;;;;7.40;99.90;;;;;;8233799;28;20001;-80
2023/04/17 21:18:38;;;;;;;;;;;7.40;99.90;;;;;;8228038;28;19918;-80
2023/04/17 21:22:39;;;;;;;;;;;7.40;99.90;;;;;;8220954;28;20289;-81
2023/04/17 21:26:40;;;;;;;;;;;7.40;99.90;;;;;;8233141;28;20294;-81
2023/04/17 21:30:40;;;;;;;;;;;7.40;99.90;;;;;;8215265;28;19906;-79
2023/04/17 21:34:40;;;;;;;;;;;7.50;99.90;;;;;;8207067;28;19961;-80
2023/04/17 21:38:42;;;;;;;;;;;7.50;99.90;;;;;;8223249;28;19929;-81
2023/04/17 21:42:42;;;;;;;;;;;7.50;99.90;;;;;;8220816;28;19910;-81
2023/04/17 21:46:44;;;;;;;;;;;7.50;99.90;;;;;;8216044;28;19906;-81
2023/04/17 21:50:44;;;;;;;;;;;7.50;99.90;;;;;;8214446;28;19913;-81
2023/04/17 21:54:44;;;;;;;;;;;7.60;99.90;;;;;;8231025;28;20005;-79
2023/04/17 21:58:45;;;;;;;;;;;7.50;99.90;;;;;;8216575;28;20442;-80
2023/04/17 22:02:45;;;;;;;;;;;7.50;99.90;;;;;;8228470;28;20363;-80
2023/04/17 22:06:46;;;;;;;;;;;7.60;99.90;;;;;;8216684;28;19922;-81
2023/04/17 22:14:49;;;;;;;;;;;7.50;99.90;;;;;;8236754;28;19933;-78
2023/04/17 22:18:50;;;;;;;;;;;7.60;99.90;;;;;;8247198;28;19909;-78
2023/04/17 22:22:52;;;;;;;;;;;7.60;99.90;;;;;;8251235;28;20337;-77
2023/04/17 22:26:52;;;;;;;;;;;7.50;99.90;;;;;;8241343;28;19913;-77
2023/04/17 22:30:53;;;;;;;;;;;7.60;99.90;;;;;;8230312;28;20001;-78
2023/04/17 22:34:53;;;;;;;;;;;7.60;99.90;;;;;;8242138;28;19913;-78
2023/04/17 22:38:54;;;;;;;;;;;7.50;99.90;;;;;;8214388;28;20542;-77
2023/04/17 22:42:54;;;;;;;;;;;7.50;99.90;;;;;;8242587;28;19914;-78
2023/04/17 22:46:55;;;;;;;;;;;7.50;99.90;;;;;;8225990;28;19945;-78
2023/04/17 22:50:55;;;;;;;;;;;7.60;99.90;;;;;;8229355;28;19956;-78
2023/04/17 22:54:56;;;;;;;;;;;7.50;99.90;;;;;;8240807;28;20001;-78
2023/04/17 22:58:56;;;;;;;;;;;7.40;99.90;;;;;;8246136;28;19914;-77
2023/04/17 23:02:57;;;;;;;;;;;7.40;99.90;;;;;;8243322;28;20009;-77
2023/04/17 23:06:57;;;;;;;;;;;7.40;99.90;;;;;;8210419;28;19906;-79
2023/04/17 23:10:58;;;;;;;;;;;7.40;99.90;;;;;;8212673;28;19910;-77
2023/04/17 23:14:59;;;;;;;;;;;7.40;99.90;;;;;;8222012;28;19914;-77
2023/04/17 23:18:59;;;;;;;;;;;7.40;99.90;;;;;;8240090;28;20293;-77
2023/04/17 23:23:00;;;;;;;;;;;7.40;99.90;;;;;;8235538;28;19929;-77
2023/04/17 23:27:00;;;;;;;;;;;7.40;99.90;;;;;;8229440;28;20366;-77
2023/04/17 23:31:04;;;;;;;;;;;7.40;99.90;;;;;;8214399;28;19996;-77
2023/04/17 23:35:05;;;;;;;;;;;7.50;99.90;;;;;;8216812;28;19910;-77
2023/04/17 23:39:06;;;;;;;;;;;7.40;99.90;;;;;;8213608;28;19936;-76